sensor_id;sensor_type;location;lat;lon;timestamp;pressure;altitude;pressure_sealevel;temperature;humidity
24746;BME280;12845;52.042;6.838;2023-07-31T00:00:29;-18524.63;;;18.49;100.00
24746;BME280;12845;52.042;6.838;2023-07-31T00:02:55;-18528.97;;;18.65;100.00
24746;BME280;12845;52.042;6.838;2023-07-31T00:05:21;-18529.53;;;18.67;100.00
24746;BME280;12845;52.042;6.838;2023-07-31T00:07:46;-18529.81;;;18.68;100.00
24746;BME280;12845;52.042;6.838;2023-07-31T00:10:12;-18535.66;;;18.90;100.00
24746;BME280;12845;52.042;6.838;2023-07-31T00:12:43;-18533.34;;;18.82;100.00
24746;BME280;12845;52.042;6.838;2023-07-31T00:15:09;-18525.84;;;18.54;100.00
24746;BME280;12845;52.042;6.838;2023-07-31T00:17:34;-18526.94;;;18.58;100.00
24746;BME280;12845;52.042;6.838;2023-07-31T00:20:00;-18529.66;;;18.68;100.00
24746;BME280;12845;52.042;6.838;2023-07-31T00:22:25;-18528.31;;;18.63;100.00
24746;BME280;12845;52.042;6.838;2023-07-31T00:24:51;-18523.53;;;18.45;100.00
24746;BME280;12845;52.042;6.838;2023-07-31T00:27:16;-18524.91;;;18.50;100.00
24746;BME280;12845;52.042;6.838;2023-07-31T00:29:41;-18524.75;;;18.49;100.00
24746;BME280;12845;52.042;6.838;2023-07-31T00:32:07;-18522.56;;;18.41;100.00
24746;BME280;12845;52.042;6.838;2023-07-31T00:34:32;-18523.94;;;18.46;100.00
24746;BME280;12845;52.042;6.838;2023-07-31T00:36:58;-18522.44;;;18.41;100.00
24746;BME280;12845;52.042;6.838;2023-07-31T00:39:23;-18523.25;;;18.44;100.00
24746;BME280;12845;52.042;6.838;2023-07-31T00:41:49;-18525.72;;;18.53;100.00
24746;BME280;12845;52.042;6.838;2023-07-31T00:44:14;-18528.72;;;18.64;100.00
24746;BME280;12845;52.042;6.838;2023-07-31T00:46:39;-18527.63;;;18.60;100.00
24746;BME280;12845;52.042;6.838;2023-07-31T00:49:05;-18530.75;;;18.72;100.00
24746;BME280;12845;52.042;6.838;2023-07-31T00:51:30;-18527.88;;;18.61;100.00
24746;BME280;12845;52.042;6.838;2023-07-31T00:53:56;-18528.44;;;18.63;100.00
24746;BME280;12845;52.042;6.838;2023-07-31T00:56:22;-18531.72;;;18.76;100.00
24746;BME280;12845;52.042;6.838;2023-07-31T00:58:47;-18544.53;;;19.24;100.00
24746;BME280;12845;52.042;6.838;2023-07-31T01:01:16;-18543.44;;;19.20;100.00
24746;BME280;12845;52.042;6.838;2023-07-31T01:03:41;-18543.16;;;19.19;100.00
24746;BME280;12845;52.042;6.838;2023-07-31T01:09:14;-18543.56;;;19.20;100.00
24746;BME280;12845;52.042;6.838;2023-07-31T01:11:53;-18543.72;;;19.21;100.00
24746;BME280;12845;52.042;6.838;2023-07-31T01:14:18;-18538.25;;;19.00;100.00
24746;BME280;12845;52.042;6.838;2023-07-31T01:16:44;-18539.91;;;19.06;100.00
24746;BME280;12845;52.042;6.838;2023-07-31T01:19:10;-18539.06;;;19.03;100.00
24746;BME280;12845;52.042;6.838;2023-07-31T01:27:17;-18537.31;;;18.97;100.00
24746;BME280;12845;52.042;6.838;2023-07-31T01:32:29;-18537.16;;;18.96;100.00
24746;BME280;12845;52.042;6.838;2023-07-31T01:34:56;-18538.25;;;19.00;100.00
24746;BME280;12845;52.042;6.838;2023-07-31T01:37:28;-18540.16;;;19.07;100.00
24746;BME280;12845;52.042;6.838;2023-07-31T01:39:54;-18543.84;;;19.21;100.00
24746;BME280;12845;52.042;6.838;2023-07-31T01:42:19;-18546.44;;;19.31;100.00
24746;BME280;12845;52.042;6.838;2023-07-31T01:44:44;-18541.53;;;19.12;100.00
24746;BME280;12845;52.042;6.838;2023-07-31T01:47:10;-18542.34;;;19.15;100.00
24746;BME280;12845;52.042;6.838;2023-07-31T01:49:35;-18543.03;;;19.18;100.00
24746;BME280;12845;52.042;6.838;2023-07-31T01:52:00;-18544.66;;;19.24;100.00
24746;BME280;12845;52.042;6.838;2023-07-31T01:54:26;-18543.84;;;19.21;100.00
24746;BME280;12845;52.042;6.838;2023-07-31T01:56:51;-18545.63;;;19.28;100.00
24746;BME280;12845;52.042;6.838;2023-07-31T01:59:16;-18545.34;;;19.27;100.00
24746;BME280;12845;52.042;6.838;2023-07-31T02:01:42;-18548.19;;;19.37;100.00
24746;BME280;12845;52.042;6.838;2023-07-31T02:04:07;-18548.06;;;19.37;100.00
24746;BME280;12845;52.042;6.838;2023-07-31T02:06:32;-18552.16;;;19.52;100.00
24746;BME280;12845;52.042;6.838;2023-07-31T02:08:58;-18550.38;;;19.46;100.00
24746;BME280;12845;52.042;6.838;2023-07-31T02:11:23;-18551.34;;;19.49;100.00
24746;BME280;12845;52.042;6.838;2023-07-31T02:13:48;-18551.88;;;19.51;100.00
24746;BME280;12845;52.042;6.838;2023-07-31T02:16:14;-18552.44;;;19.53;100.00
24746;BME280;12845;52.042;6.838;2023-07-31T02:18:39;-18554.88;;;19.63;100.00
24746;BME280;12845;52.042;6.838;2023-07-31T02:21:04;-18558.16;;;19.75;100.00
24746;BME280;12845;52.042;6.838;2023-07-31T02:23:30;-18557.59;;;19.73;100.00
24746;BME280;12845;52.042;6.838;2023-07-31T02:25:55;-18559.91;;;19.81;100.00
24746;BME280;12845;52.042;6.838;2023-07-31T02:28:20;-18558.97;;;19.78;100.00
24746;BME280;12845;52.042;6.838;2023-07-31T02:30:46;-18555.84;;;19.66;100.00
24746;BME280;12845;52.042;6.838;2023-07-31T02:33:11;-18555.41;;;19.65;100.00
24746;BME280;12845;52.042;6.838;2023-07-31T02:35:36;-18560.34;;;19.83;100.00
24746;BME280;12845;52.042;6.838;2023-07-31T02:38:02;-18562.78;;;19.92;100.00
24746;BME280;12845;52.042;6.838;2023-07-31T02:40:27;-18564.16;;;19.97;100.00
24746;BME280;12845;52.042;6.838;2023-07-31T02:42:53;-18569.31;;;20.17;100.00
24746;BME280;12845;52.042;6.838;2023-07-31T02:45:18;-18567.41;;;20.10;100.00
24746;BME280;12845;52.042;6.838;2023-07-31T02:47:43;-18572.16;;;20.27;100.00
24746;BME280;12845;52.042;6.838;2023-07-31T02:50:09;-18561.69;;;19.88;100.00
24746;BME280;12845;52.042;6.838;2023-07-31T02:52:34;-18558.28;;;19.75;100.00
24746;BME280;12845;52.042;6.838;2023-07-31T02:55:00;-18557.75;;;19.73;100.00
24746;BME280;12845;52.042;6.838;2023-07-31T02:57:25;-18562.22;;;19.90;100.00
24746;BME280;12845;52.042;6.838;2023-07-31T02:59:50;-18560.06;;;19.82;100.00
24746;BME280;12845;52.042;6.838;2023-07-31T03:02:16;-18562.22;;;19.90;100.00
24746;BME280;12845;52.042;6.838;2023-07-31T03:04:41;-18566.47;;;20.06;100.00
24746;BME280;12845;52.042;6.838;2023-07-31T03:07:07;-18561.97;;;19.89;100.00
24746;BME280;12845;52.042;6.838;2023-07-31T03:09:32;-18565.22;;;20.01;100.00
24746;BME280;12845;52.042;6.838;2023-07-31T03:11:57;-18565.78;;;20.03;100.00
24746;BME280;12845;52.042;6.838;2023-07-31T03:14:23;-18570.81;;;20.22;100.00
24746;BME280;12845;52.042;6.838;2023-07-31T03:16:48;-18570.53;;;20.21;100.00
24746;BME280;12845;52.042;6.838;2023-07-31T03:19:14;-18573.13;;;20.31;100.00
24746;BME280;12845;52.042;6.838;2023-07-31T03:21:39;-18573.41;;;20.32;100.00
24746;BME280;12845;52.042;6.838;2023-07-31T03:24:04;-18570.94;;;20.23;100.00
24746;BME280;12845;52.042;6.838;2023-07-31T03:26:31;-18568.78;;;20.15;100.00
24746;BME280;12845;52.042;6.838;2023-07-31T03:28:57;-18563.06;;;19.93;100.00
24746;BME280;12845;52.042;6.838;2023-07-31T03:31:22;-18566.03;;;20.04;100.00
24746;BME280;12845;52.042;6.838;2023-07-31T03:33:47;-18570.53;;;20.21;100.00
24746;BME280;12845;52.042;6.838;2023-07-31T03:36:13;-18570.13;;;20.20;100.00
24746;BME280;12845;52.042;6.838;2023-07-31T03:38:38;-18570.69;;;20.22;100.00
24746;BME280;12845;52.042;6.838;2023-07-31T03:41:03;-18566.19;;;20.05;100.00
24746;BME280;12845;52.042;6.838;2023-07-31T03:43:31;-18563.47;;;19.95;100.00
24746;BME280;12845;52.042;6.838;2023-07-31T03:45:58;-18568.22;;;20.13;100.00
24746;BME280;12845;52.042;6.838;2023-07-31T03:48:23;-18564.16;;;19.97;100.00
24746;BME280;12845;52.042;6.838;2023-07-31T03:50:48;-18558.16;;;19.75;100.00
24746;BME280;12845;52.042;6.838;2023-07-31T03:53:14;-18566.72;;;20.07;100.00
24746;BME280;12845;52.042;6.838;2023-07-31T03:55:39;-18567.97;;;20.12;100.00
24746;BME280;12845;52.042;6.838;2023-07-31T03:58:05;-18561.28;;;19.87;100.00
24746;BME280;12845;52.042;6.838;2023-07-31T04:00:30;-18554.88;;;19.63;100.00
24746;BME280;12845;52.042;6.838;2023-07-31T04:02:56;-18562.78;;;19.92;100.00
24746;BME280;12845;52.042;6.838;2023-07-31T04:05:21;-18564.41;;;19.98;100.00
24746;BME280;12845;52.042;6.838;2023-07-31T04:07:46;-18565.91;;;20.04;100.00
24746;BME280;12845;52.042;6.838;2023-07-31T04:10:12;-18560.88;;;19.85;100.00
24746;BME280;12845;52.042;6.838;2023-07-31T04:12:37;-18560.06;;;19.82;100.00
24746;BME280;12845;52.042;6.838;2023-07-31T04:15:02;-18558.00;;;19.74;100.00
24746;BME280;12845;52.042;6.838;2023-07-31T04:17:28;-18555.69;;;19.66;100.00
24746;BME280;12845;52.042;6.838;2023-07-31T04:19:53;-18557.19;;;19.71;100.00
24746;BME280;12845;52.042;6.838;2023-07-31T04:22:18;-18559.25;;;19.79;100.00
24746;BME280;12845;52.042;6.838;2023-07-31T04:24:44;-18564.28;;;19.98;100.00
24746;BME280;12845;52.042;6.838;2023-07-31T04:27:10;-18563.72;;;19.96;100.00
24746;BME280;12845;52.042;6.838;2023-07-31T04:29:35;-18562.78;;;19.92;100.00
24746;BME280;12845;52.042;6.838;2023-07-31T04:32:00;-18567.81;;;20.11;100.00
24746;BME280;12845;52.042;6.838;2023-07-31T04:34:26;-18567.97;;;20.12;100.00
24746;BME280;12845;52.042;6.838;2023-07-31T04:36:51;-18565.50;;;20.02;100.00
24746;BME280;12845;52.042;6.838;2023-07-31T04:39:16;-18566.88;;;20.08;100.00
24746;BME280;12845;52.042;6.838;2023-07-31T04:41:42;-18569.44;;;20.17;100.00
24746;BME280;12845;52.042;6.838;2023-07-31T04:44:07;-18567.53;;;20.10;100.00
24746;BME280;12845;52.042;6.838;2023-07-31T04:46:32;-18567.28;;;20.09;100.00
24746;BME280;12845;52.042;6.838;2023-07-31T04:48:58;-18568.78;;;20.15;100.00
24746;BME280;12845;52.042;6.838;2023-07-31T04:51:23;-18563.06;;;19.93;100.00
24746;BME280;12845;52.042;6.838;2023-07-31T04:53:49;-18564.69;;;19.99;100.00
24746;BME280;12845;52.042;6.838;2023-07-31T04:56:15;-18564.97;;;20.00;100.00
24746;BME280;12845;52.042;6.838;2023-07-31T04:58:40;-18567.00;;;20.08;100.00
24746;BME280;12845;52.042;6.838;2023-07-31T05:01:06;-18563.06;;;19.93;100.00
24746;BME280;12845;52.042;6.838;2023-07-31T05:03:31;-18566.19;;;20.05;100.00
24746;BME280;12845;52.042;6.838;2023-07-31T05:05:56;-18567.81;;;20.11;100.00
24746;BME280;12845;52.042;6.838;2023-07-31T05:08:22;-18566.59;;;20.06;100.00
24746;BME280;12845;52.042;6.838;2023-07-31T05:10:47;-18567.69;;;20.11;100.00
24746;BME280;12845;52.042;6.838;2023-07-31T05:13:13;-18565.22;;;20.01;100.00
24746;BME280;12845;52.042;6.838;2023-07-31T05:15:40;-18567.97;;;20.12;100.00
24746;BME280;12845;52.042;6.838;2023-07-31T05:18:06;-18566.19;;;20.05;100.00
24746;BME280;12845;52.042;6.838;2023-07-31T05:20:31;-18565.09;;;20.01;100.00
24746;BME280;12845;52.042;6.838;2023-07-31T05:22:56;-18564.16;;;19.97;100.00
24746;BME280;12845;52.042;6.838;2023-07-31T05:25:22;-18568.34;;;20.13;100.00
24746;BME280;12845;52.042;6.838;2023-07-31T05:27:47;-18567.13;;;20.09;100.00
24746;BME280;12845;52.042;6.838;2023-07-31T05:30:13;-18566.88;;;20.08;100.00
24746;BME280;12845;52.042;6.838;2023-07-31T05:32:38;-18569.03;;;20.16;100.00
24746;BME280;12845;52.042;6.838;2023-07-31T05:35:04;-18567.13;;;20.09;100.00
24746;BME280;12845;52.042;6.838;2023-07-31T05:37:29;-18566.88;;;20.08;100.00
24746;BME280;12845;52.042;6.838;2023-07-31T05:39:55;-18562.38;;;19.91;100.00
24746;BME280;12845;52.042;6.838;2023-07-31T05:42:20;-18562.38;;;19.91;100.00
24746;BME280;12845;52.042;6.838;2023-07-31T05:44:45;-18558.97;;;19.78;100.00
24746;BME280;12845;52.042;6.838;2023-07-31T05:47:12;-18561.41;;;19.87;100.00
24746;BME280;12845;52.042;6.838;2023-07-31T05:49:37;-18560.34;;;19.83;100.00
24746;BME280;12845;52.042;6.838;2023-07-31T05:52:03;-18561.28;;;19.87;100.00
24746;BME280;12845;52.042;6.838;2023-07-31T05:54:28;-18561.28;;;19.87;100.00
24746;BME280;12845;52.042;6.838;2023-07-31T05:56:54;-18562.50;;;19.91;100.00
24746;BME280;12845;52.042;6.838;2023-07-31T05:59:19;-18563.59;;;19.95;100.00
24746;BME280;12845;52.042;6.838;2023-07-31T06:01:44;-18564.69;;;19.99;100.00
24746;BME280;12845;52.042;6.838;2023-07-31T06:04:10;-18567.81;;;20.11;100.00
24746;BME280;12845;52.042;6.838;2023-07-31T06:06:35;-18562.22;;;19.90;100.00
24746;BME280;12845;52.042;6.838;2023-07-31T06:09:00;-18565.50;;;20.02;100.00
24746;BME280;12845;52.042;6.838;2023-07-31T06:11:26;-18566.03;;;20.04;100.00
24746;BME280;12845;52.042;6.838;2023-07-31T06:13:51;-18569.59;;;20.18;100.00
24746;BME280;12845;52.042;6.838;2023-07-31T06:16:17;-18566.47;;;20.06;100.00
24746;BME280;12845;52.042;6.838;2023-07-31T06:18:42;-18569.59;;;20.18;100.00
24746;BME280;12845;52.042;6.838;2023-07-31T06:21:08;-18571.91;;;20.26;100.00
24746;BME280;12845;52.042;6.838;2023-07-31T06:23:34;-18573.13;;;20.31;100.00
24746;BME280;12845;52.042;6.838;2023-07-31T06:25:59;-18570.69;;;20.22;100.00
24746;BME280;12845;52.042;6.838;2023-07-31T06:28:28;-18572.59;;;20.29;100.00
24746;BME280;12845;52.042;6.838;2023-07-31T06:30:59;-18575.56;;;20.40;100.00
24746;BME280;12845;52.042;6.838;2023-07-31T06:33:25;-18575.84;;;20.41;100.00
24746;BME280;12845;52.042;6.838;2023-07-31T06:35:51;-18571.63;;;20.25;100.00
24746;BME280;12845;52.042;6.838;2023-07-31T06:38:22;-18573.25;;;20.32;100.00
24746;BME280;12845;52.042;6.838;2023-07-31T06:40:49;-18568.63;;;20.14;100.00
24746;BME280;12845;52.042;6.838;2023-07-31T06:43:14;-18571.50;;;20.25;100.00
24746;BME280;12845;52.042;6.838;2023-07-31T06:45:39;-18571.50;;;20.25;100.00
24746;BME280;12845;52.042;6.838;2023-07-31T06:48:05;-18568.78;;;20.15;100.00
24746;BME280;12845;52.042;6.838;2023-07-31T06:50:31;-18571.09;;;20.23;100.00
24746;BME280;12845;52.042;6.838;2023-07-31T06:52:57;-18565.63;;;20.03;100.00
24746;BME280;12845;52.042;6.838;2023-07-31T06:55:23;-18567.81;;;20.11;100.00
24746;BME280;12845;52.042;6.838;2023-07-31T06:57:50;-18565.22;;;20.01;100.00
24746;BME280;12845;52.042;6.838;2023-07-31T07:00:17;-18564.28;;;19.98;100.00
24746;BME280;12845;52.042;6.838;2023-07-31T07:02:42;-18563.31;;;19.94;100.00
24746;BME280;12845;52.042;6.838;2023-07-31T07:05:09;-18562.50;;;19.91;100.00
24746;BME280;12845;52.042;6.838;2023-07-31T07:07:34;-18563.06;;;19.93;100.00
24746;BME280;12845;52.042;6.838;2023-07-31T07:10:00;-18565.22;;;20.01;100.00
24746;BME280;12845;52.042;6.838;2023-07-31T07:12:27;-18565.78;;;20.03;100.00
24746;BME280;12845;52.042;6.838;2023-07-31T07:14:52;-18567.28;;;20.09;100.00
24746;BME280;12845;52.042;6.838;2023-07-31T07:17:18;-18568.78;;;20.15;100.00
24746;BME280;12845;52.042;6.838;2023-07-31T07:19:44;-18570.69;;;20.22;100.00
24746;BME280;12845;52.042;6.838;2023-07-31T07:22:11;-18571.91;;;20.26;100.00
24746;BME280;12845;52.042;6.838;2023-07-31T07:24:36;-18573.66;;;20.33;100.00
24746;BME280;12845;52.042;6.838;2023-07-31T07:27:01;-18574.47;;;20.36;100.00
24746;BME280;12845;52.042;6.838;2023-07-31T07:29:27;-18573.66;;;20.33;100.00
24746;BME280;12845;52.042;6.838;2023-07-31T07:31:52;-18576.41;;;20.43;100.00
24746;BME280;12845;52.042;6.838;2023-07-31T07:34:17;-18577.34;;;20.47;100.00
24746;BME280;12845;52.042;6.838;2023-07-31T07:36:43;-18577.34;;;20.47;100.00
24746;BME280;12845;52.042;6.838;2023-07-31T07:39:10;-18576.66;;;20.44;100.00
24746;BME280;12845;52.042;6.838;2023-07-31T07:41:36;-18576.78;;;20.45;100.00
24746;BME280;12845;52.042;6.838;2023-07-31T07:44:01;-18577.34;;;20.47;100.00
24746;BME280;12845;52.042;6.838;2023-07-31T07:46:26;-18579.94;;;20.57;100.00
24746;BME280;12845;52.042;6.838;2023-07-31T07:48:52;-18575.72;;;20.41;100.00
24746;BME280;12845;52.042;6.838;2023-07-31T07:51:17;-18580.22;;;20.58;100.00
24746;BME280;12845;52.042;6.838;2023-07-31T07:53:42;-18578.97;;;20.53;100.00
24746;BME280;12845;52.042;6.838;2023-07-31T07:56:08;-18580.06;;;20.57;100.00
24746;BME280;12845;52.042;6.838;2023-07-31T07:58:33;-18577.75;;;20.48;100.00
24746;BME280;12845;52.042;6.838;2023-07-31T08:00:58;-18584.84;;;20.75;100.00
24746;BME280;12845;52.042;6.838;2023-07-31T08:03:24;-18581.03;;;20.61;100.00
24746;BME280;12845;52.042;6.838;2023-07-31T08:05:49;-18582.94;;;20.68;100.00
24746;BME280;12845;52.042;6.838;2023-07-31T08:08:15;-18583.88;;;20.71;100.00
24746;BME280;12845;52.042;6.838;2023-07-31T08:10:42;-18581.84;;;20.64;100.00
24746;BME280;12845;52.042;6.838;2023-07-31T08:13:11;-18581.69;;;20.63;100.00
24746;BME280;12845;52.042;6.838;2023-07-31T08:15:36;-18580.47;;;20.59;100.00
24746;BME280;12845;52.042;6.838;2023-07-31T08:18:01;-18585.50;;;20.78;100.00
24746;BME280;12845;52.042;6.838;2023-07-31T08:20:27;-18586.72;;;20.82;100.00
24746;BME280;12845;52.042;6.838;2023-07-31T08:22:52;-18586.47;;;20.81;100.00
24746;BME280;12845;52.042;6.838;2023-07-31T08:25:18;-18591.09;;;20.99;100.00
24746;BME280;12845;52.042;6.838;2023-07-31T08:27:44;-18590.69;;;20.97;100.00
24746;BME280;12845;52.042;6.838;2023-07-31T08:30:11;-18595.03;;;21.13;100.00
24746;BME280;12845;52.042;6.838;2023-07-31T08:32:36;-18592.59;;;21.04;100.00
24746;BME280;12845;52.042;6.838;2023-07-31T08:35:02;-18592.72;;;21.05;100.00
24746;BME280;12845;52.042;6.838;2023-07-31T08:37:27;-18588.78;;;20.90;100.00
24746;BME280;12845;52.042;6.838;2023-07-31T08:39:53;-18588.78;;;20.90;100.00
24746;BME280;12845;52.042;6.838;2023-07-31T08:42:19;-18586.06;;;20.80;100.00
24746;BME280;12845;52.042;6.838;2023-07-31T08:44:46;-18588.09;;;20.87;100.00
24746;BME280;12845;52.042;6.838;2023-07-31T08:47:12;-18590.41;;;20.96;100.00
24746;BME280;12845;52.042;6.838;2023-07-31T08:49:38;-18589.19;;;20.91;100.00
24746;BME280;12845;52.042;6.838;2023-07-31T08:52:06;-18587.97;;;20.87;100.00
24746;BME280;12845;52.042;6.838;2023-07-31T08:54:31;-18589.59;;;20.93;100.00
24746;BME280;12845;52.042;6.838;2023-07-31T08:56:58;-18591.34;;;21.00;100.00
24746;BME280;12845;52.042;6.838;2023-07-31T08:59:27;-18585.09;;;20.76;100.00
24746;BME280;12845;52.042;6.838;2023-07-31T09:01:54;-18588.78;;;20.90;100.00
24746;BME280;12845;52.042;6.838;2023-07-31T09:04:21;-18584.41;;;20.73;100.00
24746;BME280;12845;52.042;6.838;2023-07-31T09:06:48;-18587.00;;;20.83;100.00
24746;BME280;12845;52.042;6.838;2023-07-31T09:09:13;-18590.28;;;20.95;100.00
24746;BME280;12845;52.042;6.838;2023-07-31T09:11:40;-18589.59;;;20.93;100.00
24746;BME280;12845;52.042;6.838;2023-07-31T09:14:05;-18588.38;;;20.88;100.00
24746;BME280;12845;52.042;6.838;2023-07-31T09:16:34;-18593.13;;;21.06;100.00
24746;BME280;12845;52.042;6.838;2023-07-31T09:18:59;-18595.16;;;21.14;100.00
24746;BME280;12845;52.042;6.838;2023-07-31T09:21:27;-18593.25;;;21.07;100.00
24746;BME280;12845;52.042;6.838;2023-07-31T09:23:53;-18587.81;;;20.86;100.00
24746;BME280;12845;52.042;6.838;2023-07-31T09:26:36;-18595.44;;;21.15;100.00
24746;BME280;12845;52.042;6.838;2023-07-31T09:29:04;-18588.63;;;20.89;100.00
24746;BME280;12845;52.042;6.838;2023-07-31T09:31:40;-18594.22;;;21.10;100.00
24746;BME280;12845;52.042;6.838;2023-07-31T09:34:06;-18594.34;;;21.11;100.00
24746;BME280;12845;52.042;6.838;2023-07-31T09:36:32;-18594.75;;;21.12;100.00
24746;BME280;12845;52.042;6.838;2023-07-31T09:39:03;-18591.34;;;21.00;100.00
24746;BME280;12845;52.042;6.838;2023-07-31T09:41:30;-18592.44;;;21.04;100.00
24746;BME280;12845;52.042;6.838;2023-07-31T09:43:55;-18592.72;;;21.05;100.00
24746;BME280;12845;52.042;6.838;2023-07-31T09:46:21;-18588.50;;;20.89;100.00
24746;BME280;12845;52.042;6.838;2023-07-31T09:48:47;-18589.72;;;20.93;100.00
24746;BME280;12845;52.042;6.838;2023-07-31T09:51:12;-18592.03;;;21.02;100.00
24746;BME280;12845;52.042;6.838;2023-07-31T09:53:38;-18595.56;;;21.15;100.00
24746;BME280;12845;52.042;6.838;2023-07-31T09:56:03;-18597.47;;;21.23;100.00
24746;BME280;12845;52.042;6.838;2023-07-31T09:58:31;-18598.97;;;21.28;100.00
24746;BME280;12845;52.042;6.838;2023-07-31T10:00:59;-18595.97;;;21.17;100.00
24746;BME280;12845;52.042;6.838;2023-07-31T10:03:25;-18598.84;;;21.28;100.00
24746;BME280;12845;52.042;6.838;2023-07-31T10:05:53;-18598.16;;;21.25;100.00
24746;BME280;12845;52.042;6.838;2023-07-31T10:08:21;-18592.19;;;21.03;100.00
24746;BME280;12845;52.042;6.838;2023-07-31T10:10:48;-18592.84;;;21.05;100.00
24746;BME280;12845;52.042;6.838;2023-07-31T10:13:14;-18587.69;;;20.86;100.00
24746;BME280;12845;52.042;6.838;2023-07-31T10:15:40;-18588.38;;;20.88;100.00
24746;BME280;12845;52.042;6.838;2023-07-31T10:18:08;-18588.91;;;20.90;100.00
24746;BME280;12845;52.042;6.838;2023-07-31T10:20:33;-18591.50;;;21.00;100.00
24746;BME280;12845;52.042;6.838;2023-07-31T10:22:59;-18590.53;;;20.96;100.00
24746;BME280;12845;52.042;6.838;2023-07-31T10:25:26;-18593.41;;;21.07;100.00
24746;BME280;12845;52.042;6.838;2023-07-31T10:27:53;-18589.19;;;20.91;100.00
24746;BME280;12845;52.042;6.838;2023-07-31T10:30:22;-18593.94;;;21.09;100.00
24746;BME280;12845;52.042;6.838;2023-07-31T10:32:51;-18593.00;;;21.06;100.00
24746;BME280;12845;52.042;6.838;2023-07-31T10:35:17;-18591.91;;;21.02;100.00
24746;BME280;12845;52.042;6.838;2023-07-31T10:37:43;-18589.47;;;20.92;100.00
24746;BME280;12845;52.042;6.838;2023-07-31T10:40:16;-18590.53;;;20.96;100.00
24746;BME280;12845;52.042;6.838;2023-07-31T10:42:49;-18590.69;;;20.97;100.00
24746;BME280;12845;52.042;6.838;2023-07-31T10:45:25;-18594.09;;;21.10;100.00
24746;BME280;12845;52.042;6.838;2023-07-31T10:47:58;-18591.34;;;21.00;100.00
24746;BME280;12845;52.042;6.838;2023-07-31T10:50:24;-18590.53;;;20.96;100.00
24746;BME280;12845;52.042;6.838;2023-07-31T10:52:54;-18588.50;;;20.89;100.00
24746;BME280;12845;52.042;6.838;2023-07-31T10:55:38;-18584.41;;;20.73;100.00
24746;BME280;12845;52.042;6.838;2023-07-31T10:58:12;-18581.97;;;20.64;100.00
24746;BME280;12845;52.042;6.838;2023-07-31T11:00:43;-18583.47;;;20.70;100.00
24746;BME280;12845;52.042;6.838;2023-07-31T11:03:17;-18577.22;;;20.46;100.00
24746;BME280;12845;52.042;6.838;2023-07-31T11:08:13;-18573.41;;;20.32;100.00
24746;BME280;12845;52.042;6.838;2023-07-31T11:10:38;-18576.25;;;20.43;100.00
24746;BME280;12845;52.042;6.838;2023-07-31T11:13:04;-18577.88;;;20.49;100.00
24746;BME280;12845;52.042;6.838;2023-07-31T11:15:30;-18582.94;;;20.68;100.00
24746;BME280;12845;52.042;6.838;2023-07-31T11:17:56;-18580.88;;;20.60;100.00
24746;BME280;12845;52.042;6.838;2023-07-31T11:20:24;-18586.19;;;20.80;100.00
24746;BME280;12845;52.042;6.838;2023-07-31T11:22:49;-18584.00;;;20.72;100.00
24746;BME280;12845;52.042;6.838;2023-07-31T11:25:15;-18581.44;;;20.62;100.00
24746;BME280;12845;52.042;6.838;2023-07-31T11:27:41;-18589.19;;;20.91;100.00
24746;BME280;12845;52.042;6.838;2023-07-31T11:30:07;-18588.22;;;20.88;100.00
24746;BME280;12845;52.042;6.838;2023-07-31T11:32:33;-18587.81;;;20.86;100.00
24746;BME280;12845;52.042;6.838;2023-07-31T11:34:58;-18593.66;;;21.08;100.00
24746;BME280;12845;52.042;6.838;2023-07-31T11:37:23;-18594.63;;;21.12;100.00
24746;BME280;12845;52.042;6.838;2023-07-31T11:39:59;-18596.78;;;21.20;100.00
24746;BME280;12845;52.042;6.838;2023-07-31T11:42:25;-18602.78;;;21.43;100.00
24746;BME280;12845;52.042;6.838;2023-07-31T11:44:50;-18599.25;;;21.29;100.00
24746;BME280;12845;52.042;6.838;2023-07-31T11:47:16;-18600.88;;;21.35;100.00
24746;BME280;12845;52.042;6.838;2023-07-31T11:49:43;-18604.97;;;21.51;100.00
24746;BME280;12845;52.042;6.838;2023-07-31T11:52:09;-18603.72;;;21.46;100.00
24746;BME280;12845;52.042;6.838;2023-07-31T11:54:35;-18605.78;;;21.54;100.00
24746;BME280;12845;52.042;6.838;2023-07-31T11:57:01;-18607.94;;;21.62;100.00
24746;BME280;12845;52.042;6.838;2023-07-31T11:59:27;-18609.03;;;21.66;100.00
24746;BME280;12845;52.042;6.838;2023-07-31T12:01:52;-18604.97;;;21.51;100.00
24746;BME280;12845;52.042;6.838;2023-07-31T12:04:19;-18612.44;;;21.79;100.00
24746;BME280;12845;52.042;6.838;2023-07-31T12:06:47;-18614.47;;;21.86;100.00
24746;BME280;12845;52.042;6.838;2023-07-31T12:09:14;-18612.56;;;21.79;100.00
24746;BME280;12845;52.042;6.838;2023-07-31T12:11:44;-18610.41;;;21.71;100.00
24746;BME280;12845;52.042;6.838;2023-07-31T12:14:20;-18616.09;;;21.93;100.00
24746;BME280;12845;52.042;6.838;2023-07-31T12:16:47;-18616.50;;;21.94;100.00
24746;BME280;12845;52.042;6.838;2023-07-31T12:19:13;-18617.06;;;21.96;100.00
24746;BME280;12845;52.042;6.838;2023-07-31T12:21:38;-18621.25;;;22.12;100.00
24746;BME280;12845;52.042;6.838;2023-07-31T12:24:04;-18621.94;;;22.15;100.00
24746;BME280;12845;52.042;6.838;2023-07-31T12:26:38;-18622.06;;;22.15;100.00
24746;BME280;12845;52.042;6.838;2023-07-31T12:29:06;-18616.91;;;21.96;100.00
24746;BME280;12845;52.042;6.838;2023-07-31T12:31:33;-18618.13;;;22.00;100.00
24746;BME280;12845;52.042;6.838;2023-07-31T12:34:02;-18625.63;;;22.28;100.00
24746;BME280;12845;52.042;6.838;2023-07-31T12:36:28;-18616.38;;;21.94;100.00
24746;BME280;12845;52.042;6.838;2023-07-31T12:38:55;-18619.91;;;22.07;100.00
24746;BME280;12845;52.042;6.838;2023-07-31T12:41:23;-18617.31;;;21.97;100.00
24746;BME280;12845;52.042;6.838;2023-07-31T12:43:49;-18614.88;;;21.88;100.00
24746;BME280;12845;52.042;6.838;2023-07-31T12:46:14;-18616.50;;;21.94;100.00
24746;BME280;12845;52.042;6.838;2023-07-31T12:48:40;-18615.28;;;21.90;100.00